createdAt,value
2022-08-21T00:00:44.234Z,6.7
2022-08-21T00:05:41.752Z,6.7
2022-08-21T00:15:41.736Z,6.7
2022-08-21T00:20:41.731Z,6.6
2022-08-21T00:30:41.776Z,6.8
2022-08-21T00:50:41.748Z,6.8
2022-08-21T00:55:41.769Z,6.8
2022-08-21T01:05:41.764Z,7
2022-08-21T01:15:41.745Z,6.9
2022-08-21T01:20:41.758Z,7.1
2022-08-21T01:25:41.754Z,7
2022-08-21T01:35:41.754Z,7.2
2022-08-21T01:40:41.752Z,7.1
2022-08-21T01:45:41.763Z,7
2022-08-21T02:05:41.764Z,7.2
2022-08-21T02:10:41.758Z,7.3
2022-08-21T02:20:41.761Z,7.1
2022-08-21T02:30:41.799Z,7
2022-08-21T02:40:43.863Z,7.2
2022-08-21T02:45:41.792Z,7.3
2022-08-21T02:55:41.778Z,7.2
2022-08-21T03:05:41.779Z,7.1
2022-08-21T03:25:41.858Z,7.1
2022-08-21T03:35:41.796Z,7.1
2022-08-21T03:45:41.781Z,7
2022-08-21T03:50:41.779Z,7
2022-08-21T03:55:41.828Z,7
2022-08-21T04:05:41.801Z,7.1
2022-08-21T04:15:41.800Z,7
2022-08-21T04:20:41.800Z,7
2022-08-21T04:25:41.808Z,7
2022-08-21T04:45:41.801Z,7.1
2022-08-21T04:50:41.862Z,7.1
2022-08-21T05:00:41.812Z,7.1
2022-08-21T05:10:41.813Z,7.1
2022-08-21T05:20:41.797Z,7
2022-08-21T05:30:41.855Z,7.1
2022-08-21T05:40:41.876Z,7
2022-08-21T06:00:41.881Z,7.1
2022-08-21T06:10:41.816Z,7.1
2022-08-21T06:15:41.840Z,7.1
2022-08-21T06:20:41.865Z,7.1
2022-08-21T06:30:42.036Z,7.3
2022-08-21T06:40:44.003Z,7.1
2022-08-21T06:50:41.814Z,7.2
2022-08-21T06:55:41.820Z,7.2
2022-08-21T07:00:41.812Z,7.3
2022-08-21T07:20:41.810Z,7
2022-08-21T07:30:41.822Z,7.2
2022-08-21T07:40:41.846Z,7.1
2022-08-21T07:50:41.843Z,7.1
2022-08-21T08:00:41.851Z,7.1
2022-08-21T08:10:41.880Z,7
2022-08-21T08:20:41.861Z,6.8
2022-08-21T08:40:43.176Z,6.9
2022-08-21T08:45:41.866Z,6.9
2022-08-21T08:50:41.856Z,7
2022-08-21T09:00:41.851Z,6.9
2022-08-21T09:05:41.887Z,6.9
2022-08-21T09:15:41.871Z,6.8
2022-08-21T09:20:41.942Z,6.8
2022-08-21T09:30:41.879Z,6.9
2022-08-21T09:35:41.922Z,6.9
2022-08-21T10:00:41.965Z,6.8
2022-08-21T10:05:41.897Z,6.7
2022-08-21T10:10:41.939Z,6.7
2022-08-21T10:20:41.899Z,6.8
2022-08-21T10:25:56.272Z,6.6
2022-08-21T10:30:41.889Z,6.5
2022-08-21T10:40:41.915Z,6.4
2022-08-21T10:45:41.912Z,6.7
2022-08-21T10:50:41.923Z,6.4
2022-08-21T11:15:41.932Z,6.4
2022-08-21T11:25:41.947Z,6.6
2022-08-21T11:35:41.930Z,6.6
2022-08-21T11:40:41.958Z,6.6
2022-08-21T11:50:41.957Z,6.6
2022-08-21T11:55:41.928Z,6.4
2022-08-21T12:05:41.943Z,6.2
2022-08-21T12:10:41.946Z,6.6
2022-08-21T12:35:41.947Z,6.5
2022-08-21T12:40:41.963Z,6.5
2022-08-21T12:50:41.970Z,6.3
2022-08-21T13:00:41.996Z,6.3
2022-08-21T13:10:41.957Z,6.2
2022-08-21T13:20:41.978Z,6.4
2022-08-21T13:25:41.954Z,6.3
2022-08-21T13:30:41.968Z,6.5
2022-08-21T13:50:41.970Z,6.3
2022-08-21T14:00:41.986Z,6.3
2022-08-21T14:05:42.009Z,6.2
2022-08-21T14:15:41.977Z,6.3
2022-08-21T14:20:42.006Z,6.2
2022-08-21T14:30:41.987Z,6.1
2022-08-21T14:35:41.992Z,6.2
2022-08-21T14:40:41.988Z,6.2
2022-08-21T14:45:41.993Z,6.2
2022-08-21T14:50:42.008Z,6.2
2022-08-21T15:10:57.328Z,6.1
2022-08-21T15:20:42.002Z,6.1
2022-08-21T15:25:42.016Z,6.1
2022-08-21T15:35:42.037Z,6
2022-08-21T15:40:47.757Z,6
2022-08-21T15:50:42.027Z,6
2022-08-21T16:00:42.070Z,6.1
2022-08-21T16:05:42.015Z,6
2022-08-21T16:10:42.058Z,6.1
2022-08-21T16:30:42.041Z,6
2022-08-21T16:40:42.036Z,6.1
2022-08-21T16:45:42.034Z,6
2022-08-21T16:55:42.062Z,6
2022-08-21T17:05:42.055Z,5.8
2022-08-21T17:10:42.046Z,5.9
2022-08-21T17:15:42.081Z,5.9
2022-08-21T17:20:42.061Z,5.9
2022-08-21T17:30:42.051Z,5.9
2022-08-21T17:45:42.074Z,6
2022-08-21T17:50:42.097Z,6
2022-08-21T18:00:42.111Z,6
2022-08-21T18:10:42.068Z,6.1
2022-08-21T18:15:42.107Z,6.2
2022-08-21T18:25:42.085Z,6.1
2022-08-21T18:30:42.089Z,6.1
2022-08-21T18:35:42.091Z,6.2
2022-08-21T18:40:42.097Z,6.2
2022-08-21T18:45:42.136Z,6.1
2022-08-21T19:05:42.084Z,6.2
2022-08-21T19:10:42.734Z,6.3
2022-08-21T19:20:42.094Z,6.3
2022-08-21T19:25:42.095Z,6.5
2022-08-21T19:30:42.117Z,6.4
2022-08-21T19:35:42.166Z,6.5
2022-08-21T19:45:42.132Z,6.4
2022-08-21T19:55:42.149Z,6.2
2022-08-21T20:05:42.134Z,6.3
2022-08-21T20:25:42.144Z,6.3
2022-08-21T20:35:42.154Z,6.3
2022-08-21T20:45:42.144Z,6.3
2022-08-21T20:55:42.164Z,6.2
2022-08-21T21:05:42.157Z,6.2
2022-08-21T21:15:42.150Z,6.3
2022-08-21T21:20:45.751Z,6.2
2022-08-21T21:45:42.152Z,6.3
2022-08-21T21:50:42.592Z,6.2
2022-08-21T22:00:42.741Z,6.4
2022-08-21T22:05:42.164Z,6.4
2022-08-21T22:15:42.193Z,6.6
2022-08-21T22:25:42.165Z,6.5
2022-08-21T22:30:42.179Z,6.4
2022-08-21T22:35:42.196Z,6.6
2022-08-21T22:45:42.194Z,6.5
2022-08-21T23:05:42.171Z,6.4
2022-08-21T23:10:42.166Z,6.4
2022-08-21T23:20:42.353Z,6.5
2022-08-21T23:25:43.039Z,6.5
2022-08-21T23:35:42.182Z,6.5
2022-08-21T23:40:51.131Z,6.5
2022-08-21T23:45:48.860Z,6.6
2022-08-21T23:55:42.174Z,6.6
